Time;durP1;ratioP1;P1;durP2;ratioP2;P2;SDS_P1;SDS_P2;PMS_P1;PMS_P2;Temp;Humidity;BMP_temperature;BMP_pressure;BME280_temperature;BME280_humidity;BME280_pressure;Samples;Min_cycle;Max_cycle;Signal;HPM_P1;HPM_P2
2021/05/21 00:01:17;;;;;;;1.30;0.83;;;13.30;99.90;;;;;;4937454;29;20745;-75
2021/05/21 00:03:42;;;;;;;1.00;0.90;;;13.30;99.90;;;;;;4937117;29;20193;-76
2021/05/21 00:06:09;;;;;;;1.63;0.93;;;13.30;99.90;;;;;;4937614;29;20832;-76
2021/05/21 00:08:35;;;;;;;1.57;0.90;;;13.20;99.90;;;;;;4937506;29;20205;-76
2021/05/21 00:11:01;;;;;;;2.57;1.00;;;13.20;99.90;;;;;;4936159;29;20417;-76
2021/05/21 00:13:26;;;;;;;3.00;1.20;;;13.30;99.90;;;;;;4936935;29;20949;-76
2021/05/21 00:15:52;;;;;;;2.80;0.90;;;13.20;99.90;;;;;;4936069;29;20212;-76
2021/05/21 00:18:18;;;;;;;1.60;1.10;;;13.20;99.90;;;;;;4937277;29;20518;-76
2021/05/21 00:20:43;;;;;;;1.43;1.03;;;13.20;99.90;;;;;;4937117;29;20205;-76
2021/05/21 00:23:09;;;;;;;2.70;1.20;;;13.10;99.90;;;;;;4936659;29;20440;-76
2021/05/21 00:25:34;;;;;;;2.13;1.00;;;13.10;99.90;;;;;;4937061;29;20189;-76
2021/05/21 00:28:00;;;;;;;2.03;1.13;;;13.10;99.90;;;;;;4937072;29;20182;-76
2021/05/21 00:30:25;;;;;;;2.00;1.10;;;13.10;99.90;;;;;;4935753;29;20236;-76
2021/05/21 00:32:51;;;;;;;2.83;1.30;;;13.10;99.90;;;;;;4936691;29;20273;-76
2021/05/21 00:35:17;;;;;;;3.07;1.10;;;13.10;99.90;;;;;;4936988;29;20725;-76
2021/05/21 00:37:43;;;;;;;2.90;1.00;;;13.10;99.90;;;;;;4936775;29;20182;-77
2021/05/21 00:40:09;;;;;;;2.03;1.00;;;13.10;99.90;;;;;;4935494;29;20236;-76
2021/05/21 00:42:34;;;;;;;2.60;0.87;;;13.10;99.90;;;;;;4936705;29;20886;-77
2021/05/21 00:45:00;;;;;;;4.90;1.30;;;13.10;99.90;;;;;;4936560;29;20525;-76
2021/05/21 00:47:27;;;;;;;1.53;1.10;;;13.10;99.90;;;;;;4936737;29;20252;-76
2021/05/21 00:49:53;;;;;;;2.73;0.80;;;13.10;99.90;;;;;;4936494;29;20181;-76
2021/05/21 00:52:21;;;;;;;2.43;1.30;;;13.10;99.90;;;;;;4951710;29;20956;-76
2021/05/21 00:54:47;;;;;;;1.70;1.00;;;13.20;99.90;;;;;;4936369;29;20193;-76
2021/05/21 00:57:13;;;;;;;1.50;1.23;;;13.10;99.90;;;;;;4951459;29;20421;-75
2021/05/21 00:59:39;;;;;;;1.43;0.80;;;13.10;99.90;;;;;;4936533;29;20409;-76
2021/05/21 01:02:07;;;;;;;1.60;0.97;;;13.00;99.90;;;;;;4936482;29;20417;-76
2021/05/21 01:04:35;;;;;;;1.10;0.90;;;13.00;99.90;;;;;;4934574;29;20198;-76
2021/05/21 01:07:01;;;;;;;1.07;0.73;;;13.00;99.90;;;;;;4936546;29;20453;-75
2021/05/21 01:09:27;;;;;;;1.20;0.90;;;13.00;99.90;;;;;;4936366;29;20425;-75
2021/05/21 01:11:53;;;;;;;1.97;1.03;;;13.10;99.90;;;;;;4936284;29;20472;-75
2021/05/21 01:14:18;;;;;;;2.40;0.90;;;13.00;99.90;;;;;;4936016;29;20686;-76
2021/05/21 01:16:44;;;;;;;1.73;0.97;;;13.00;99.90;;;;;;4951182;29;20182;-76
2021/05/21 01:19:10;;;;;;;1.03;0.90;;;13.20;99.90;;;;;;4936318;29;20203;-76
2021/05/21 01:21:35;;;;;;;0.90;0.73;;;13.20;99.90;;;;;;4950929;29;20295;-76
2021/05/21 01:24:06;;;;;;;1.27;0.80;;;13.20;99.90;;;;;;4935745;29;20213;-76
2021/05/21 01:26:32;;;;;;;2.20;0.70;;;13.30;99.90;;;;;;4936159;29;20180;-76
2021/05/21 01:28:58;;;;;;;2.13;0.80;;;13.30;99.90;;;;;;4936186;29;20417;-76
2021/05/21 01:31:24;;;;;;;1.20;0.80;;;13.30;99.90;;;;;;4936267;29;20432;-76
2021/05/21 01:33:51;;;;;;;3.73;1.23;;;13.20;99.90;;;;;;4934557;29;20622;-76
2021/05/21 01:36:17;;;;;;;1.40;0.80;;;13.20;99.90;;;;;;4936000;29;20787;-76
2021/05/21 01:38:56;;;;;;;1.83;1.00;;;13.20;99.90;;;;;;4936047;29;20392;-76
2021/05/21 01:41:22;;;;;;;2.70;1.20;;;13.30;99.90;;;;;;4936072;29;20865;-76
2021/05/21 01:43:47;;;;;;;3.13;1.27;;;13.30;99.90;;;;;;4934486;29;20949;-76
2021/05/21 01:46:14;;;;;;;1.30;1.10;;;13.20;99.90;;;;;;4936222;29;20501;-77
2021/05/21 01:48:39;;;;;;;1.20;1.00;;;13.20;99.90;;;;;;4935786;29;20181;-76
2021/05/21 01:51:05;;;;;;;2.13;0.90;;;13.20;99.90;;;;;;4936071;29;20432;-76
2021/05/21 01:53:34;;;;;;;1.20;0.87;;;13.20;99.90;;;;;;4935640;29;20675;-76
2021/05/21 01:55:59;;;;;;;2.60;0.87;;;13.20;99.90;;;;;;4935918;29;20526;-76
2021/05/21 01:58:25;;;;;;;1.37;0.90;;;13.20;99.90;;;;;;4935768;29;20433;-76
2021/05/21 02:00:51;;;;;;;3.80;0.80;;;13.20;99.90;;;;;;4935853;29;20284;-76
2021/05/21 02:03:16;;;;;;;1.77;0.83;;;13.20;99.90;;;;;;4935574;29;20201;-76
2021/05/21 02:05:42;;;;;;;1.87;0.90;;;13.20;99.90;;;;;;4935867;29;20567;-76
2021/05/21 02:08:08;;;;;;;0.70;0.70;;;13.20;99.90;;;;;;4935777;29;20197;-77
2021/05/21 02:10:33;;;;;;;3.70;1.00;;;13.20;99.90;;;;;;4935683;29;20643;-77
2021/05/21 02:12:59;;;;;;;4.07;1.20;;;13.20;99.90;;;;;;4934402;29;20406;-76
2021/05/21 02:15:25;;;;;;;2.53;0.83;;;13.20;99.90;;;;;;4937236;28;20182;-76
2021/05/21 02:17:50;;;;;;;1.53;0.90;;;13.10;99.90;;;;;;4939550;29;20185;-76
2021/05/21 02:20:16;;;;;;;2.23;1.10;;;13.10;99.90;;;;;;4939247;29;20745;-77
2021/05/21 02:22:42;;;;;;;2.20;0.90;;;13.10;99.90;;;;;;4939102;29;20418;-76
2021/05/21 02:25:10;;;;;;;2.30;0.87;;;13.10;99.90;;;;;;4938985;29;20626;-77
2021/05/21 02:27:36;;;;;;;3.43;1.10;;;13.00;99.90;;;;;;4937925;29;20433;-76
2021/05/21 02:30:02;;;;;;;0.93;0.80;;;13.00;99.90;;;;;;4939301;29;20418;-77
2021/05/21 02:32:29;;;;;;;0.90;0.80;;;12.90;99.90;;;;;;4939086;29;20244;-77
2021/05/21 02:34:54;;;;;;;1.87;1.37;;;12.90;99.90;;;;;;4953462;29;20464;-76
2021/05/21 02:37:20;;;;;;;1.30;0.93;;;12.90;99.90;;;;;;4937826;29;20416;-76
2021/05/21 02:39:45;;;;;;;1.77;0.80;;;12.90;99.90;;;;;;4939006;29;20256;-76
2021/05/21 02:42:11;;;;;;;1.23;0.90;;;12.80;99.90;;;;;;4939052;29;20206;-77
2021/05/21 02:44:37;;;;;;;1.17;0.97;;;12.80;99.90;;;;;;4938534;29;20194;-77
2021/05/21 02:47:03;;;;;;;1.73;1.10;;;12.60;99.90;;;;;;4953591;29;20177;-76
2021/05/21 02:49:29;;;;;;;1.80;1.10;;;12.70;99.90;;;;;;4938885;29;20910;-76
2021/05/21 02:51:55;;;;;;;1.33;0.83;;;12.60;99.90;;;;;;4938887;29;20192;-76
2021/05/21 02:54:21;;;;;;;1.87;1.10;;;12.60;99.90;;;;;;4938488;29;20442;-78
2021/05/21 02:56:47;;;;;;;1.67;0.87;;;12.60;99.90;;;;;;4937407;29;20421;-76
2021/05/21 02:59:12;;;;;;;2.07;1.00;;;12.60;99.90;;;;;;4938643;29;20672;-81
2021/05/21 03:01:39;;;;;;;0.83;0.70;;;12.50;99.90;;;;;;4937577;29;20212;-77
2021/05/21 03:04:04;;;;;;;5.97;1.30;;;12.60;99.90;;;;;;4938534;29;20198;-76
2021/05/21 03:06:30;;;;;;;1.43;1.33;;;12.50;99.90;;;;;;4938791;29;20428;-76
2021/05/21 03:08:56;;;;;;;1.27;0.90;;;12.50;99.90;;;;;;4938441;29;20264;-78
2021/05/21 03:11:21;;;;;;;1.93;0.90;;;12.40;99.90;;;;;;4938580;29;20182;-77
2021/05/21 03:13:47;;;;;;;3.17;0.87;;;12.30;99.90;;;;;;4938221;29;20204;-76
2021/05/21 03:16:13;;;;;;;2.27;0.90;;;12.30;99.90;;;;;;4938542;29;20551;-76
2021/05/21 03:18:39;;;;;;;2.23;1.10;;;12.20;99.90;;;;;;4938229;29;20213;-76
2021/05/21 03:21:05;;;;;;;2.40;1.30;;;12.10;99.90;;;;;;4938143;29;20563;-77
2021/05/21 03:23:31;;;;;;;2.78;1.00;;;11.90;99.90;;;;;;4937757;29;20684;-77
2021/05/21 03:25:57;;;;;;;2.23;1.20;;;11.90;99.90;;;;;;4937873;29;20213;-77
2021/05/21 03:28:22;;;;;;;2.70;1.08;;;11.80;99.90;;;;;;4938208;29;20536;-76
2021/05/21 03:30:48;;;;;;;1.10;0.83;;;11.80;99.90;;;;;;4952798;29;20189;-76
2021/05/21 03:33:14;;;;;;;2.03;0.90;;;11.80;99.90;;;;;;4937631;29;20201;-76
2021/05/21 03:35:40;;;;;;;1.70;1.20;;;11.70;99.90;;;;;;4938024;29;20212;-77
2021/05/21 03:38:07;;;;;;;2.87;1.03;;;11.60;99.90;;;;;;4936596;29;20556;-77
2021/05/21 03:40:34;;;;;;;1.52;1.00;;;11.60;99.90;;;;;;4937873;29;20531;-77
2021/05/21 03:42:59;;;;;;;2.90;1.20;;;11.50;99.90;;;;;;4937467;29;20178;-77
2021/05/21 03:45:25;;;;;;;1.43;0.87;;;11.50;99.90;;;;;;4937834;29;20757;-77
2021/05/21 03:47:50;;;;;;;2.90;1.23;;;11.50;99.90;;;;;;4952728;29;20630;-77
2021/05/21 03:50:19;;;;;;;1.37;1.00;;;11.40;99.90;;;;;;4938087;29;20277;-77
2021/05/21 03:52:46;;;;;;;1.83;1.20;;;11.40;99.90;;;;;;4937789;29;20170;-77
2021/05/21 03:55:12;;;;;;;1.27;0.90;;;11.30;99.90;;;;;;4937936;29;20244;-77
2021/05/21 03:57:38;;;;;;;2.30;1.20;;;11.30;99.90;;;;;;4937576;29;20594;-77
2021/05/21 04:00:06;;;;;;;1.23;1.10;;;11.20;99.90;;;;;;4937617;29;20515;-77
2021/05/21 04:02:32;;;;;;;4.00;1.27;;;11.20;99.90;;;;;;4937640;29;20429;-77
2021/05/21 04:04:57;;;;;;;3.13;1.30;;;11.20;99.90;;;;;;4937306;29;20436;-77
2021/05/21 04:07:23;;;;;;;3.37;1.00;;;11.10;99.90;;;;;;4952223;29;20643;-77
2021/05/21 04:09:49;;;;;;;3.67;1.10;;;11.10;99.90;;;;;;4952233;29;20213;-77
2021/05/21 04:12:14;;;;;;;4.97;0.90;;;11.10;99.90;;;;;;4937376;29;20241;-76
2021/05/21 04:14:40;;;;;;;1.40;1.00;;;11.10;99.90;;;;;;4935705;29;20224;-76
2021/05/21 04:17:05;;;;;;;4.10;1.20;;;11.10;99.90;;;;;;4937308;29;20173;-77
2021/05/21 04:19:31;;;;;;;1.27;1.17;;;11.10;99.90;;;;;;4937253;29;20182;-77
2021/05/21 04:21:56;;;;;;;3.27;1.20;;;11.10;99.90;;;;;;4937231;29;20214;-77
2021/05/21 04:24:22;;;;;;;1.37;1.27;;;11.10;99.90;;;;;;4951405;29;20220;-77
2021/05/21 04:26:48;;;;;;;2.93;1.10;;;11.00;99.90;;;;;;4935880;29;20197;-77
2021/05/21 04:29:13;;;;;;;2.47;1.90;;;11.00;99.90;;;;;;4935665;29;20272;-77
2021/05/21 04:31:39;;;;;;;1.80;1.07;;;11.00;99.90;;;;;;4936855;29;20268;-76
2021/05/21 04:34:05;;;;;;;1.70;1.37;;;11.00;99.90;;;;;;4936636;29;20212;-76
2021/05/21 04:36:30;;;;;;;6.40;1.40;;;11.10;99.90;;;;;;4936911;29;20181;-76
2021/05/21 04:38:56;;;;;;;1.57;1.03;;;11.20;99.90;;;;;;4951000;28;20185;-76
2021/05/21 04:41:22;;;;;;;2.33;2.13;;;11.20;99.90;;;;;;4936641;29;20201;-76
2021/05/21 04:43:47;;;;;;;1.50;1.20;;;11.30;99.90;;;;;;4936256;29;20221;-76
2021/05/21 04:46:13;;;;;;;3.20;1.20;;;11.30;99.90;;;;;;4935486;29;20429;-76
2021/05/21 04:48:39;;;;;;;1.92;1.02;;;11.30;99.90;;;;;;4936713;29;20177;-76
2021/05/21 04:51:05;;;;;;;1.53;1.10;;;11.40;99.90;;;;;;4936809;29;20559;-76
2021/05/21 04:53:31;;;;;;;1.75;1.00;;;11.40;99.90;;;;;;4936508;29;20201;-77
2021/05/21 04:55:56;;;;;;;2.17;1.13;;;11.50;99.90;;;;;;4936646;29;20192;-76
2021/05/21 04:58:22;;;;;;;2.93;1.60;;;11.60;99.90;;;;;;4935369;29;20193;-76
2021/05/21 05:00:47;;;;;;;4.80;1.13;;;11.70;99.90;;;;;;4936436;29;20708;-76
2021/05/21 05:03:17;;;;;;;2.87;1.67;;;11.70;99.90;;;;;;4936039;29;20221;-76
2021/05/21 05:05:44;;;;;;;2.50;1.30;;;11.70;99.90;;;;;;4936718;29;20517;-77
2021/05/21 05:08:10;;;;;;;1.53;0.93;;;11.80;99.90;;;;;;4936578;29;20417;-76
2021/05/21 05:10:35;;;;;;;2.67;1.27;;;11.90;99.90;;;;;;4951398;29;20448;-76
2021/05/21 05:13:01;;;;;;;2.73;0.97;;;12.00;99.90;;;;;;4936062;29;20468;-76
2021/05/21 05:15:27;;;;;;;1.57;1.03;;;12.10;99.90;;;;;;4936271;29;20509;-76
2021/05/21 05:17:53;;;;;;;1.67;1.10;;;12.30;99.90;;;;;;4936101;29;20421;-77
2021/05/21 05:20:22;;;;;;;2.20;1.20;;;12.30;99.90;;;;;;4936232;29;20208;-76
2021/05/21 05:22:48;;;;;;;2.90;1.30;;;12.40;99.90;;;;;;4935853;29;20413;-76
2021/05/21 05:25:14;;;;;;;5.83;1.10;;;12.60;99.90;;;;;;4936107;29;20948;-76
2021/05/21 05:27:40;;;;;;;3.80;1.10;;;12.70;99.90;;;;;;4936115;29;20418;-76
2021/05/21 05:30:06;;;;;;;2.67;0.87;;;12.80;99.90;;;;;;4936032;29;20185;-76
2021/05/21 05:32:32;;;;;;;2.50;1.13;;;12.80;99.90;;;;;;4936326;29;20181;-76
2021/05/21 05:34:57;;;;;;;6.73;1.20;;;12.90;99.90;;;;;;4935722;29;20976;-76
2021/05/21 05:37:23;;;;;;;3.03;1.00;;;13.00;99.90;;;;;;4936045;29;20174;-76
2021/05/21 05:39:48;;;;;;;2.50;1.00;;;13.10;99.90;;;;;;4935891;29;20512;-77
2021/05/21 05:42:14;;;;;;;5.53;1.13;;;13.20;99.90;;;;;;4935848;29;20272;-76
2021/05/21 05:44:39;;;;;;;1.87;1.23;;;13.20;99.90;;;;;;4935515;29;20201;-77
2021/05/21 05:47:05;;;;;;;1.30;0.90;;;13.20;99.90;;;;;;4935977;29;20705;-76
2021/05/21 05:49:31;;;;;;;3.60;1.03;;;13.30;99.90;;;;;;4937817;29;20181;-76
2021/05/21 05:51:57;;;;;;;3.50;1.30;;;13.30;99.90;;;;;;4939874;29;20701;-76
2021/05/21 05:54:23;;;;;;;2.73;1.53;;;13.40;99.90;;;;;;4939524;29;20677;-76
2021/05/21 05:56:48;;;;;;;5.27;1.50;;;13.50;99.90;;;;;;4938595;29;20685;-76
2021/05/21 05:59:14;;;;;;;5.33;1.00;;;13.50;99.90;;;;;;4940087;29;20852;-76
2021/05/21 06:01:39;;;;;;;4.00;1.47;;;13.60;99.90;;;;;;4954459;29;20240;-76
2021/05/21 06:04:05;;;;;;;5.07;1.57;;;13.70;99.90;;;;;;4954030;29;20283;-76
2021/05/21 06:06:31;;;;;;;6.60;1.80;;;13.70;99.90;;;;;;4939561;29;20197;-76
2021/05/21 06:08:57;;;;;;;3.43;2.03;;;13.80;99.90;;;;;;4939511;29;20530;-76
2021/05/21 06:11:23;;;;;;;1.93;0.83;;;13.70;99.90;;;;;;4939427;29;20201;-77
2021/05/21 06:13:49;;;;;;;5.73;1.50;;;13.60;99.90;;;;;;4937818;29;20449;-76
2021/05/21 06:16:15;;;;;;;5.53;1.30;;;13.70;99.90;;;;;;4939316;29;20468;-76
2021/05/21 06:18:41;;;;;;;4.60;1.53;;;13.80;99.90;;;;;;4954122;29;20189;-76
2021/05/21 06:21:09;;;;;;;3.60;1.23;;;13.80;99.90;;;;;;4938909;29;20189;-76
2021/05/21 06:23:35;;;;;;;6.30;3.17;;;13.80;99.90;;;;;;4938802;29;20444;-76
2021/05/21 06:26:29;;;;;;;5.67;1.90;;;13.90;99.90;;;;;;4939020;29;20472;-76
2021/05/21 06:28:55;;;;;;;5.33;1.57;;;13.90;99.90;;;;;;4939027;29;20490;-76
2021/05/21 06:31:21;;;;;;;6.03;1.40;;;13.90;99.90;;;;;;4939099;29;20428;-76
2021/05/21 06:33:47;;;;;;;3.63;1.30;;;13.90;99.90;;;;;;4938857;29;20212;-76
2021/05/21 06:36:13;;;;;;;1.80;1.00;;;13.80;99.90;;;;;;4938763;29;20417;-75
2021/05/21 06:38:39;;;;;;;3.97;1.40;;;13.80;99.90;;;;;;4938783;29;20429;-76
2021/05/21 06:41:06;;;;;;;3.37;1.50;;;13.80;99.90;;;;;;4953463;29;20225;-76
2021/05/21 06:43:32;;;;;;;1.83;0.97;;;13.90;99.90;;;;;;4938701;29;20540;-76
2021/05/21 06:45:59;;;;;;;3.97;1.30;;;13.80;99.90;;;;;;4937582;29;20449;-76
2021/05/21 06:48:31;;;;;;;5.50;1.10;;;13.80;99.90;;;;;;4938903;29;20414;-76
2021/05/21 06:50:59;;;;;;;3.50;1.70;;;13.80;99.90;;;;;;4938755;29;20405;-76
2021/05/21 06:53:26;;;;;;;10.03;1.70;;;13.80;99.90;;;;;;4938387;29;20437;-76
2021/05/21 06:55:52;;;;;;;4.33;1.40;;;13.90;99.90;;;;;;4939097;29;20428;-76
2021/05/21 06:58:19;;;;;;;3.17;1.43;;;14.00;99.90;;;;;;4953418;29;20430;-76
2021/05/21 07:00:46;;;;;;;3.03;1.07;;;14.10;99.90;;;;;;4937528;29;20212;-76
2021/05/21 07:03:12;;;;;;;4.40;1.30;;;14.10;99.90;;;;;;4938249;29;20950;-75
2021/05/21 07:05:38;;;;;;;4.30;1.47;;;14.20;99.90;;;;;;4953289;29;20492;-75
2021/05/21 07:08:04;;;;;;;5.20;2.33;;;14.20;99.90;;;;;;4938581;29;20181;-76
2021/05/21 07:10:30;;;;;;;4.17;1.97;;;14.20;99.90;;;;;;4938302;29;20866;-76
2021/05/21 07:12:55;;;;;;;3.33;1.23;;;14.30;99.90;;;;;;4937858;29;20456;-78
2021/05/21 07:15:21;;;;;;;3.33;1.23;;;14.20;99.90;;;;;;4938571;29;20224;-77
2021/05/21 07:17:47;;;;;;;5.77;1.30;;;14.10;99.90;;;;;;4938418;29;20233;-77
2021/05/21 07:20:14;;;;;;;5.20;1.40;;;14.20;99.90;;;;;;4938146;29;20232;-76
2021/05/21 07:22:40;;;;;;;3.17;1.20;;;14.20;99.90;;;;;;4936895;29;20190;-77
2021/05/21 07:25:07;;;;;;;3.63;1.47;;;14.40;99.90;;;;;;4937787;29;20531;-77
2021/05/21 07:27:32;;;;;;;3.27;1.27;;;14.80;99.90;;;;;;4938103;29;20200;-76
2021/05/21 07:29:58;;;;;;;3.53;1.33;;;14.80;99.90;;;;;;4938106;29;20418;-77
2021/05/21 07:32:23;;;;;;;4.60;1.70;;;14.70;99.90;;;;;;4937919;29;20177;-77
2021/05/21 07:34:49;;;;;;;1.70;1.33;;;14.60;99.90;;;;;;4952264;29;20538;-77
2021/05/21 07:37:15;;;;;;;2.17;1.10;;;14.40;99.90;;;;;;4952691;29;20182;-78
2021/05/21 07:39:40;;;;;;;3.83;1.43;;;14.30;99.90;;;;;;4952524;29;20210;-77
2021/05/21 07:42:06;;;;;;;4.60;1.30;;;14.50;99.90;;;;;;4937822;29;20221;-76
2021/05/21 07:44:32;;;;;;;4.00;1.60;;;14.60;99.90;;;;;;4937399;29;20197;-78
2021/05/21 07:46:57;;;;;;;3.90;1.60;;;14.70;99.90;;;;;;4936337;29;20486;-77
2021/05/21 07:49:24;;;;;;;7.23;2.10;;;14.70;99.90;;;;;;4937616;29;20178;-77
2021/05/21 07:51:52;;;;;;;6.33;1.60;;;14.60;99.90;;;;;;4936367;29;20592;-77
2021/05/21 07:54:19;;;;;;;10.40;2.17;;;14.50;99.90;;;;;;4937239;29;20941;-78
2021/05/21 07:56:45;;;;;;;14.07;1.97;;;14.40;99.90;;;;;;4937513;29;20413;-78
2021/05/21 07:59:11;;;;;;;14.07;2.63;;;14.30;99.90;;;;;;4937328;29;20422;-77
2021/05/21 08:01:39;;;;;;;5.87;1.67;;;14.10;99.90;;;;;;4937611;29;20296;-78
2021/05/21 08:04:05;;;;;;;5.50;2.30;;;13.90;99.90;;;;;;4951772;29;20537;-77
2021/05/21 08:06:30;;;;;;;7.17;2.10;;;14.20;99.90;;;;;;4937579;29;20501;-78
2021/05/21 08:08:56;;;;;;;9.53;2.37;;;14.50;99.90;;;;;;4937327;29;21031;-77
2021/05/21 08:11:22;;;;;;;7.30;1.63;;;14.60;99.90;;;;;;4937337;29;20290;-77
2021/05/21 08:13:47;;;;;;;5.13;1.67;;;14.60;99.90;;;;;;4935950;29;20221;-77
2021/05/21 08:16:14;;;;;;;11.63;1.87;;;14.80;99.90;;;;;;4937286;29;20186;-78
2021/05/21 08:18:40;;;;;;;4.30;1.57;;;14.90;99.90;;;;;;4936399;29;20185;-76
2021/05/21 08:21:06;;;;;;;5.63;2.03;;;14.70;99.90;;;;;;4936958;29;20992;-76
2021/05/21 08:23:31;;;;;;;7.73;2.20;;;14.60;99.90;;;;;;4936495;29;20461;-76
2021/05/21 08:25:57;;;;;;;9.60;1.87;;;15.00;99.90;;;;;;4937259;29;20420;-76
2021/05/21 08:28:25;;;;;;;5.77;1.30;;;15.00;99.90;;;;;;4951950;29;20580;-77
2021/05/21 08:30:52;;;;;;;2.47;1.40;;;14.80;99.90;;;;;;4937055;29;20265;-77
2021/05/21 08:33:18;;;;;;;2.67;1.03;;;14.50;99.90;;;;;;4936443;29;20437;-76
2021/05/21 08:35:43;;;;;;;11.50;1.80;;;14.40;99.90;;;;;;4936965;29;20433;-78
2021/05/21 08:38:09;;;;;;;13.17;1.63;;;14.80;99.90;;;;;;4936857;29;20832;-77
2021/05/21 08:40:38;;;;;;;5.30;1.70;;;15.30;99.90;;;;;;4936661;29;20274;-76
2021/05/21 08:43:09;;;;;;;6.97;1.90;;;15.70;99.90;;;;;;4936381;29;20180;-78
2021/05/21 08:45:35;;;;;;;5.70;1.30;;;15.50;99.90;;;;;;4936496;29;20472;-77
2021/05/21 08:48:02;;;;;;;5.67;1.60;;;15.60;99.90;;;;;;4951335;29;20479;-77
2021/05/21 08:50:28;;;;;;;4.10;1.40;;;15.90;99.90;;;;;;4936597;29;20468;-77
2021/05/21 08:52:54;;;;;;;7.97;2.03;;;15.60;99.90;;;;;;4936296;29;20400;-77
2021/05/21 08:55:19;;;;;;;4.80;1.70;;;15.90;99.90;;;;;;4936822;29;20839;-77
2021/05/21 08:57:45;;;;;;;7.43;2.10;;;15.90;99.90;;;;;;4936598;29;20712;-77
2021/05/21 09:00:12;;;;;;;9.30;1.60;;;15.80;99.90;;;;;;4951208;29;20292;-76
2021/05/21 09:02:41;;;;;;;8.40;1.47;;;15.40;99.90;;;;;;4935061;29;20407;-76
2021/05/21 09:05:09;;;;;;;6.93;2.03;;;15.40;99.90;;;;;;4935078;29;20500;-76
2021/05/21 09:07:37;;;;;;;8.00;1.73;;;15.50;99.90;;;;;;4936262;29;20751;-77
2021/05/21 09:10:12;;;;;;;7.40;1.13;;;16.00;99.90;;;;;;4936301;29;20423;-77
2021/05/21 09:12:43;;;;;;;6.23;1.70;;;16.00;99.90;;;;;;4936224;29;20399;-77
2021/05/21 09:15:26;;;;;;;4.60;1.80;;;16.00;99.90;;;;;;4936182;29;20419;-76
2021/05/21 09:18:05;;;;;;;8.93;1.97;;;16.00;99.90;;;;;;4936157;29;20405;-76
2021/05/21 09:20:33;;;;;;;4.90;1.50;;;15.80;99.90;;;;;;4936133;29;20828;-76
2021/05/21 09:23:15;;;;;;;8.83;2.00;;;15.50;99.90;;;;;;4936031;29;20421;-77
2021/05/21 09:25:46;;;;;;;5.00;1.53;;;15.40;99.90;;;;;;4935737;29;20396;-77
2021/05/21 09:28:32;;;;;;;5.33;1.90;;;15.30;99.90;;;;;;4936041;29;20380;-76
2021/05/21 09:31:11;;;;;;;5.53;1.60;;;15.80;99.90;;;;;;4934757;29;20867;-76
2021/05/21 09:33:39;;;;;;;6.23;1.37;;;16.30;99.90;;;;;;4935662;29;20432;-77
2021/05/21 09:36:06;;;;;;;4.93;1.57;;;16.40;99.90;;;;;;4935928;29;20475;-78
2021/05/21 09:38:43;;;;;;;2.90;1.70;;;16.10;99.90;;;;;;4935951;29;20420;-77
2021/05/21 09:41:09;;;;;;;5.73;2.07;;;16.10;99.90;;;;;;4934705;29;20813;-77
2021/05/21 09:43:35;;;;;;;8.43;1.70;;;16.20;99.90;;;;;;4935446;29;20445;-77
2021/05/21 09:46:11;;;;;;;7.60;1.83;;;16.10;99.90;;;;;;4934551;29;20189;-76
2021/05/21 09:48:38;;;;;;;4.50;1.60;;;16.20;99.90;;;;;;4935825;29;21023;-77
2021/05/21 09:51:04;;;;;;;3.30;1.23;;;16.40;99.90;;;;;;4935889;29;20423;-76
2021/05/21 09:53:33;;;;;;;7.37;2.20;;;16.70;99.90;;;;;;4950287;29;20419;-76
2021/05/21 09:56:01;;;;;;;8.47;1.43;;;16.40;99.90;;;;;;4935812;29;20418;-76
2021/05/21 09:58:33;;;;;;;5.37;1.50;;;16.20;99.90;;;;;;4935831;29;20429;-76
2021/05/21 10:01:07;;;;;;;7.53;2.10;;;16.30;99.90;;;;;;4935718;29;20559;-76
2021/05/21 10:03:33;;;;;;;6.33;2.23;;;16.60;99.90;;;;;;4935373;29;20442;-77
2021/05/21 10:05:59;;;;;;;5.87;1.87;;;16.30;99.90;;;;;;4936103;29;20910;-77
2021/05/21 10:08:25;;;;;;;9.13;2.50;;;16.10;99.90;;;;;;4950708;29;20491;-76
2021/05/21 10:10:51;;;;;;;6.53;1.50;;;16.70;99.90;;;;;;4950727;29;20185;-76
2021/05/21 10:13:17;;;;;;;7.00;1.80;;;17.00;99.90;;;;;;4949995;29;20474;-77
2021/05/21 10:15:43;;;;;;;6.67;1.77;;;17.10;99.90;;;;;;4935673;29;20392;-76
2021/05/21 10:18:13;;;;;;;4.47;1.40;;;17.10;99.90;;;;;;4935663;29;20274;-77
2021/05/21 10:20:39;;;;;;;8.03;2.17;;;16.40;99.90;;;;;;4935598;29;20197;-76
2021/05/21 10:23:06;;;;;;;4.70;1.63;;;15.80;99.90;;;;;;4935119;29;20755;-76
2021/05/21 10:25:34;;;;;;;6.03;2.17;;;15.80;99.90;;;;;;4935493;29;20402;-76
2021/05/21 10:28:06;;;;;;;9.03;2.80;;;16.10;99.90;;;;;;4935478;29;20409;-77
2021/05/21 10:30:34;;;;;;;4.17;2.10;;;16.90;99.90;;;;;;4935473;29;20460;-76
2021/05/21 10:33:35;;;;;;;6.87;1.57;;;17.00;99.90;;;;;;4935121;29;20415;-77
2021/05/21 10:36:16;;;;;;;5.67;1.87;;;16.90;99.90;;;;;;4905730;29;20939;-76
2021/05/21 10:39:01;;;;;;;5.93;1.53;;;17.10;99.90;;;;;;4939066;29;20479;-76
2021/05/21 10:41:26;;;;;;;7.83;1.90;;;17.40;99.90;;;;;;4938834;29;20435;-76
2021/05/21 10:43:54;;;;;;;8.60;1.73;;;17.60;99.90;;;;;;4938602;29;20443;-76
2021/05/21 10:46:22;;;;;;;6.57;1.80;;;17.10;99.90;;;;;;4938592;29;20233;-77
2021/05/21 10:49:05;;;;;;;6.97;2.10;;;16.90;99.90;;;;;;4953542;29;20399;-77
2021/05/21 10:51:51;;;;;;;5.70;1.50;;;17.60;99.90;;;;;;4938741;29;20460;-78
2021/05/21 10:54:26;;;;;;;6.93;1.60;;;17.70;99.90;;;;;;4938257;29;20454;-77
2021/05/21 10:56:55;;;;;;;5.60;1.33;;;17.50;99.90;;;;;;4953261;29;20425;-78
2021/05/21 10:59:38;;;;;;;4.37;1.53;;;17.30;99.90;;;;;;4938672;29;20424;-77
2021/05/21 11:02:04;;;;;;;7.23;1.60;;;17.20;99.90;;;;;;4938552;29;20457;-77
2021/05/21 11:04:30;;;;;;;4.40;1.90;;;17.70;99.90;;;;;;4938123;29;20524;-76
2021/05/21 11:06:55;;;;;;;6.50;1.70;;;18.00;99.90;;;;;;4938505;29;20204;-76
2021/05/21 11:09:27;;;;;;;5.33;1.70;;;17.80;99.90;;;;;;4953331;29;20423;-77
2021/05/21 11:11:59;;;;;;;5.40;1.87;;;18.30;99.90;;;;;;4938337;29;20229;-76
2021/05/21 11:14:33;;;;;;;6.37;1.90;;;18.80;99.90;;;;;;4937971;29;20869;-77
2021/05/21 11:17:10;;;;;;;5.50;1.73;;;19.20;99.90;;;;;;4938252;29;20388;-76
2021/05/21 11:19:37;;;;;;;6.90;2.00;;;19.20;99.90;;;;;;4938459;29;20469;-76
2021/05/21 11:22:19;;;;;;;3.73;1.90;;;19.10;99.90;;;;;;4953044;29;20439;-77
2021/05/21 11:24:47;;;;;;;4.00;1.40;;;19.50;99.90;;;;;;4937635;29;20461;-78
2021/05/21 11:27:14;;;;;;;6.50;1.40;;;19.00;99.90;;;;;;4938413;29;20477;-77
2021/05/21 11:29:45;;;;;;;8.03;1.70;;;17.90;99.90;;;;;;4938206;29;20417;-76
2021/05/21 11:32:11;;;;;;;4.07;1.50;;;17.70;99.90;;;;;;4936983;29;20460;-76
2021/05/21 11:34:37;;;;;;;8.43;2.07;;;18.00;99.90;;;;;;4937617;29;20543;-77
2021/05/21 11:37:05;;;;;;;5.50;1.60;;;18.30;99.90;;;;;;4938010;29;20804;-77
2021/05/21 11:39:31;;;;;;;3.50;1.33;;;18.60;99.90;;;;;;4937899;29;20904;-77
2021/05/21 11:41:57;;;;;;;4.13;1.77;;;18.70;99.90;;;;;;4937832;29;20526;-77
2021/05/21 11:44:28;;;;;;;6.70;1.80;;;18.40;99.90;;;;;;4937400;29;20580;-76
2021/05/21 11:47:00;;;;;;;6.00;1.80;;;18.40;99.90;;;;;;4937454;29;20178;-79
2021/05/21 11:49:26;;;;;;;6.30;1.60;;;18.10;99.90;;;;;;4937763;29;20928;-78
2021/05/21 11:51:56;;;;;;;2.07;1.30;;;18.60;99.90;;;;;;4937773;29;20935;-77
2021/05/21 11:54:21;;;;;;;8.67;2.00;;;18.30;99.90;;;;;;4937219;29;20998;-77
2021/05/21 11:56:47;;;;;;;5.53;1.60;;;18.40;99.90;;;;;;4936272;29;20436;-79
2021/05/21 11:59:19;;;;;;;8.03;1.67;;;18.20;99.90;;;;;;4937421;29;20196;-77
2021/05/21 12:01:47;;;;;;;7.03;1.83;;;19.00;99.90;;;;;;4937446;29;20450;-77
2021/05/21 12:04:14;;;;;;;2.67;1.43;;;19.10;99.90;;;;;;4935969;29;20997;-77
2021/05/21 12:06:43;;;;;;;11.10;2.00;;;19.50;99.90;;;;;;4952151;29;20923;-78
2021/05/21 12:09:11;;;;;;;6.07;2.23;;;19.10;99.60;;;;;;4937352;29;20409;-77
2021/05/21 12:11:37;;;;;;;3.73;1.83;;;19.00;99.60;;;;;;4937630;29;20796;-77
2021/05/21 12:14:04;;;;;;;9.50;2.93;;;19.00;99.90;;;;;;4936988;29;20441;-78
2021/05/21 12:16:31;;;;;;;6.83;2.13;;;19.40;99.90;;;;;;4937164;29;20483;-77
2021/05/21 12:19:00;;;;;;;3.77;1.60;;;19.40;99.40;;;;;;4937112;29;20480;-78
2021/05/21 12:21:31;;;;;;;5.33;1.83;;;19.60;99.90;;;;;;4937041;29;20464;-77
2021/05/21 12:23:58;;;;;;;7.10;2.03;;;20.10;99.90;;;;;;4936600;29;20515;-78
2021/05/21 12:26:32;;;;;;;7.60;1.73;;;20.20;99.90;;;;;;4937178;29;20865;-77
2021/05/21 12:29:00;;;;;;;6.40;1.87;;;20.30;97.20;;;;;;4937030;29;20818;-76
2021/05/21 12:31:33;;;;;;;4.43;1.37;;;19.40;97.60;;;;;;4951731;29;20425;-78
2021/05/21 12:34:00;;;;;;;4.10;1.53;;;19.00;96.10;;;;;;4936675;29;20437;-77
2021/05/21 12:36:28;;;;;;;8.03;1.63;;;18.40;97.90;;;;;;4937022;29;20418;-77
2021/05/21 12:38:57;;;;;;;7.27;1.70;;;18.30;99.40;;;;;;4936828;29;20813;-77
2021/05/21 12:41:30;;;;;;;8.10;2.20;;;18.70;99.90;;;;;;4936672;29;20442;-77
2021/05/21 12:44:13;;;;;;;5.63;1.20;;;19.30;99.90;;;;;;4936366;29;20408;-76
2021/05/21 12:46:50;;;;;;;7.80;1.57;;;19.50;98.60;;;;;;4936796;29;20931;-77